createdAt,value
2023-01-03T00:00:19.664Z,96.88
2023-01-03T00:01:19.613Z,96.77
2023-01-03T00:02:19.640Z,96.67
2023-01-03T00:03:19.589Z,96.67
2023-01-03T00:04:19.620Z,96.67
2023-01-03T00:05:19.580Z,96.67
2023-01-03T00:06:19.551Z,97.19
2023-01-03T00:07:19.549Z,97.29
2023-01-03T00:08:19.531Z,97.39
2023-01-03T00:09:19.527Z,97.60
2023-01-03T00:10:19.518Z,97.66
2023-01-03T00:11:19.508Z,97.66
2023-01-03T00:12:19.482Z,97.66
2023-01-03T00:13:19.489Z,97.66
2023-01-03T00:14:19.470Z,97.66
2023-01-03T00:15:19.502Z,97.55
2023-01-03T00:16:19.497Z,97.66
2023-01-03T00:17:19.551Z,97.55
2023-01-03T00:18:19.438Z,97.55
2023-01-03T00:19:19.425Z,97.45
2023-01-03T00:20:19.419Z,97.41
2023-01-03T00:21:19.390Z,97.34
2023-01-03T00:22:19.398Z,97.34
2023-01-03T00:23:19.370Z,97.41
2023-01-03T00:24:19.380Z,97.41
2023-01-03T00:25:19.389Z,97.41
2023-01-03T00:26:19.361Z,97.20
2023-01-03T00:27:19.340Z,97.09
2023-01-03T00:28:19.324Z,96.99
2023-01-03T00:29:19.312Z,97.09
2023-01-03T00:30:19.301Z,96.99
2023-01-03T00:31:19.344Z,96.99
2023-01-03T00:32:19.272Z,96.99
2023-01-03T00:33:19.285Z,96.89
2023-01-03T00:34:19.255Z,96.84
2023-01-03T00:35:19.268Z,96.79
2023-01-03T00:36:19.222Z,96.74
2023-01-03T00:37:19.225Z,96.64
2023-01-03T00:38:19.212Z,96.64
2023-01-03T00:39:19.206Z,96.64
2023-01-03T00:40:19.208Z,96.84
2023-01-03T00:41:19.189Z,96.84
2023-01-03T00:42:19.176Z,96.84
2023-01-03T00:43:19.162Z,96.84
2023-01-03T00:44:19.145Z,96.89
2023-01-03T00:45:20.069Z,96.89
2023-01-03T00:46:19.167Z,96.89
2023-01-03T00:47:19.124Z,96.79
2023-01-03T00:48:19.104Z,96.74
2023-01-03T00:49:19.095Z,96.74
2023-01-03T00:50:19.172Z,96.84
2023-01-03T00:51:19.075Z,97.05
2023-01-03T00:52:19.069Z,97.05
2023-01-03T00:53:19.051Z,97.05
2023-01-03T00:54:19.036Z,97.05
2023-01-03T00:55:19.055Z,97.05
2023-01-03T00:56:19.034Z,97.05
2023-01-03T00:57:19.011Z,96.95
2023-01-03T00:58:19.011Z,96.84
2023-01-03T00:59:18.984Z,96.74
2023-01-03T01:00:18.987Z,96.74
2023-01-03T01:01:19.104Z,96.74
2023-01-03T01:02:19.108Z,96.74
2023-01-03T01:03:19.139Z,96.64
2023-01-03T01:04:18.952Z,96.64
2023-01-03T01:05:18.934Z,96.64
2023-01-03T01:06:18.918Z,96.53
2023-01-03T01:07:18.897Z,96.53
2023-01-03T01:08:18.897Z,96.53
2023-01-03T01:09:18.875Z,96.28
2023-01-03T01:10:18.887Z,96.08
2023-01-03T01:11:18.857Z,95.98
2023-01-03T01:12:18.848Z,95.77
2023-01-03T01:13:18.830Z,95.87
2023-01-03T01:14:18.835Z,95.92
2023-01-03T01:15:18.824Z,95.87
2023-01-03T01:16:18.884Z,95.87
2023-01-03T01:17:22.596Z,96.18
2023-01-03T01:18:18.787Z,96.28
2023-01-03T01:19:18.850Z,96.28
2023-01-03T01:20:18.768Z,96.39
2023-01-03T01:21:18.746Z,96.49
2023-01-03T01:22:18.747Z,96.59
2023-01-03T01:23:18.729Z,96.59
2023-01-03T01:24:18.726Z,96.70
2023-01-03T01:25:18.716Z,96.70
2023-01-03T01:26:18.699Z,96.95
2023-01-03T01:27:18.707Z,97.16
2023-01-03T01:28:18.679Z,97.05
2023-01-03T01:29:18.679Z,96.80
2023-01-03T01:30:18.658Z,96.59
2023-01-03T01:31:18.656Z,96.28
2023-01-03T01:32:18.648Z,96.18
2023-01-03T01:33:18.621Z,96.08
2023-01-03T01:34:18.631Z,96.08
2023-01-03T01:35:18.612Z,95.98
2023-01-03T01:36:18.597Z,95.87
2023-01-03T01:37:18.579Z,95.87
2023-01-03T01:38:18.574Z,95.87
2023-01-03T01:39:18.583Z,95.87
2023-01-03T01:40:18.559Z,95.87
2023-01-03T01:41:18.532Z,95.77
2023-01-03T01:42:20.219Z,95.77
2023-01-03T01:43:18.525Z,95.98
2023-01-03T01:44:18.538Z,96.08
2023-01-03T01:45:18.497Z,95.98
2023-01-03T01:46:18.542Z,95.87
2023-01-03T01:47:18.477Z,95.98
2023-01-03T01:48:18.464Z,96.18
2023-01-03T01:49:18.463Z,96.28
2023-01-03T01:50:18.453Z,96.18
2023-01-03T01:51:18.423Z,96.08
2023-01-03T01:52:18.465Z,96.18
2023-01-03T01:53:18.444Z,96.39
2023-01-03T01:54:18.413Z,96.39
2023-01-03T01:55:18.401Z,96.28
2023-01-03T01:56:18.434Z,96.28
2023-01-03T01:57:18.361Z,96.28
2023-01-03T01:58:18.386Z,96.28
2023-01-03T01:59:18.350Z,96.18
2023-01-03T02:00:18.345Z,96.28
2023-01-03T02:01:18.446Z,96.39
2023-01-03T02:02:18.481Z,96.39
2023-01-03T02:03:18.386Z,96.39
2023-01-03T02:04:18.315Z,96.18
2023-01-03T02:05:18.276Z,96.18
2023-01-03T02:06:18.264Z,96.18
2023-01-03T02:07:18.255Z,96.18
2023-01-03T02:08:18.265Z,96.18
2023-01-03T02:09:18.230Z,96.28
2023-01-03T02:10:18.255Z,96.28
2023-01-03T02:11:18.232Z,96.18
2023-01-03T02:12:18.204Z,96.08
2023-01-03T02:13:18.204Z,96.08
2023-01-03T02:14:18.185Z,96.08
2023-01-03T02:15:18.176Z,96.03
2023-01-03T02:16:18.309Z,96.03
2023-01-03T02:17:18.156Z,96.03
2023-01-03T02:18:18.156Z,95.83
2023-01-03T02:19:18.127Z,95.73
2023-01-03T02:20:18.129Z,95.62
2023-01-03T02:21:20.191Z,95.52
2023-01-03T02:22:18.095Z,95.42
2023-01-03T02:23:18.113Z,95.31
2023-01-03T02:24:18.076Z,95.31
2023-01-03T02:25:18.088Z,95.31
2023-01-03T02:26:18.097Z,95.21
2023-01-03T02:27:18.039Z,95.21
2023-01-03T02:28:18.037Z,95.42
2023-01-03T02:29:18.026Z,95.42
2023-01-03T02:30:18.016Z,95.42
2023-01-03T02:31:18.085Z,95.31
2023-01-03T02:32:17.997Z,95.21
2023-01-03T02:33:17.990Z,95.00
2023-01-03T02:34:17.962Z,94.80
2023-01-03T02:35:17.958Z,94.70
2023-01-03T02:36:17.949Z,94.38
2023-01-03T02:37:17.947Z,94.38
2023-01-03T02:38:17.941Z,94.28
2023-01-03T02:39:22.009Z,94.18
2023-01-03T02:40:18.898Z,94.08
2023-01-03T02:41:17.902Z,94.08
2023-01-03T02:42:17.890Z,94.08
2023-01-03T02:43:17.879Z,93.87
2023-01-03T02:44:17.939Z,93.77
2023-01-03T02:45:17.859Z,93.77
2023-01-03T02:46:17.875Z,93.77
2023-01-03T02:47:17.841Z,93.66
2023-01-03T02:48:17.811Z,93.66
2023-01-03T02:49:17.812Z,93.77
2023-01-03T02:50:17.800Z,93.87
2023-01-03T02:51:17.789Z,93.98
2023-01-03T02:52:17.779Z,93.98
2023-01-03T02:53:17.796Z,94.28
2023-01-03T02:54:17.765Z,94.28
2023-01-03T02:55:17.750Z,94.18
2023-01-03T02:56:17.756Z,93.56
2023-01-03T02:57:17.739Z,93.25
2023-01-03T02:58:17.711Z,93.05
2023-01-03T02:59:17.704Z,93.05
2023-01-03T03:00:17.687Z,92.94
2023-01-03T03:01:17.733Z,92.63
2023-01-03T03:02:17.821Z,92.74
2023-01-03T03:03:17.835Z,92.94
2023-01-03T03:04:17.663Z,92.74
2023-01-03T03:05:17.670Z,92.74
2023-01-03T03:06:17.652Z,92.74
2023-01-03T03:07:17.671Z,92.53
2023-01-03T03:08:17.652Z,92.38
2023-01-03T03:09:17.639Z,92.38
2023-01-03T03:10:17.602Z,92.38
2023-01-03T03:11:17.611Z,92.38
2023-01-03T03:12:17.564Z,92.49
2023-01-03T03:13:17.552Z,92.08
2023-01-03T03:14:17.545Z,91.87
2023-01-03T03:15:17.523Z,92.08
2023-01-03T03:16:17.595Z,92.38
2023-01-03T03:17:17.542Z,92.59
2023-01-03T03:18:17.486Z,92.80
2023-01-03T03:19:17.507Z,92.80
2023-01-03T03:20:17.478Z,93.01
2023-01-03T03:21:17.465Z,93.01
2023-01-03T03:22:17.458Z,93.01
2023-01-03T03:23:17.477Z,93.15
2023-01-03T03:24:17.428Z,93.05
2023-01-03T03:25:17.421Z,92.74
2023-01-03T03:26:17.416Z,92.63
2023-01-03T03:27:17.396Z,92.53
2023-01-03T03:28:17.388Z,92.74
2023-01-03T03:29:17.377Z,92.84
2023-01-03T03:30:17.357Z,92.94
2023-01-03T03:31:17.408Z,92.53
2023-01-03T03:32:17.345Z,92.29
2023-01-03T03:33:17.330Z,92.38
2023-01-03T03:34:17.328Z,91.97
2023-01-03T03:35:17.307Z,92.08
2023-01-03T03:36:17.321Z,92.29
2023-01-03T03:37:17.302Z,92.38
2023-01-03T03:38:17.287Z,92.69
2023-01-03T03:39:17.265Z,92.94
2023-01-03T03:40:17.266Z,93.15
2023-01-03T03:41:17.267Z,93.25
2023-01-03T03:42:17.232Z,93.35
2023-01-03T03:43:17.232Z,93.46
2023-01-03T03:44:17.220Z,93.66
2023-01-03T03:45:17.210Z,93.77
2023-01-03T03:46:17.275Z,93.87
2023-01-03T03:47:17.298Z,94.08
2023-01-03T03:48:17.167Z,94.18
2023-01-03T03:49:17.167Z,94.18
2023-01-03T03:50:17.149Z,94.28
2023-01-03T03:51:17.149Z,94.28
2023-01-03T03:52:17.132Z,94.43
2023-01-03T03:53:17.137Z,94.43
2023-01-03T03:54:17.099Z,94.32
2023-01-03T03:55:17.110Z,94.23
2023-01-03T03:56:17.120Z,94.23
2023-01-03T03:57:17.069Z,94.23
2023-01-03T03:58:17.069Z,94.12
2023-01-03T03:59:17.058Z,94.23
2023-01-03T04:00:17.049Z,94.23
2023-01-03T04:01:17.086Z,94.23
2023-01-03T04:02:17.154Z,94.23
2023-01-03T04:03:17.100Z,94.02
2023-01-03T04:04:17.002Z,93.91
2023-01-03T04:05:17.005Z,93.91
2023-01-03T04:06:16.981Z,94.02
2023-01-03T04:07:16.961Z,94.02
2023-01-03T04:08:16.952Z,94.02
2023-01-03T04:09:16.953Z,94.23
2023-01-03T04:10:16.922Z,94.23
2023-01-03T04:11:16.933Z,94.12
2023-01-03T04:12:16.910Z,94.12
2023-01-03T04:13:16.904Z,94.23
2023-01-03T04:14:17.011Z,94.12
2023-01-03T04:15:16.888Z,94.23
2023-01-03T04:16:16.929Z,94.23
2023-01-03T04:17:16.873Z,94.12
2023-01-03T04:18:16.924Z,94.23
2023-01-03T04:19:16.834Z,94.12
2023-01-03T04:20:16.824Z,94.12
2023-01-03T04:21:20.731Z,94.23
2023-01-03T04:22:16.804Z,94.23
2023-01-03T04:23:16.794Z,94.32
2023-01-03T04:24:16.772Z,94.32
2023-01-03T04:25:16.774Z,94.32
2023-01-03T04:26:16.764Z,94.43
2023-01-03T04:27:16.745Z,94.23
2023-01-03T04:28:16.734Z,94.23
2023-01-03T04:29:16.734Z,94.43
2023-01-03T04:30:16.714Z,94.32
2023-01-03T04:31:16.754Z,94.32
2023-01-03T04:32:16.695Z,94.43
2023-01-03T04:33:16.688Z,94.43
2023-01-03T04:34:16.670Z,94.32
2023-01-03T04:35:16.681Z,94.23
2023-01-03T04:36:16.660Z,94.12
2023-01-03T04:37:16.756Z,94.12
2023-01-03T04:38:16.636Z,94.64
2023-01-03T04:39:16.631Z,94.84
2023-01-03T04:40:16.630Z,95.36
2023-01-03T04:41:16.674Z,95.98
2023-01-03T04:42:16.596Z,96.08
2023-01-03T04:43:16.590Z,95.98
2023-01-03T04:44:16.569Z,95.67
2023-01-03T04:45:16.567Z,95.36
2023-01-03T04:46:16.605Z,95.15
2023-01-03T04:47:16.548Z,94.95
2023-01-03T04:48:16.516Z,94.80
2023-01-03T04:49:16.518Z,94.70
2023-01-03T04:50:16.553Z,94.70
2023-01-03T04:51:16.529Z,95.00
2023-01-03T04:52:16.509Z,95.10
2023-01-03T04:53:16.470Z,95.31
2023-01-03T04:54:16.469Z,95.46
2023-01-03T04:55:16.460Z,95.46
2023-01-03T04:56:16.466Z,95.56
2023-01-03T04:57:16.449Z,95.67
2023-01-03T04:58:16.410Z,95.46
2023-01-03T04:59:16.413Z,95.36
2023-01-03T05:00:16.389Z,95.36
2023-01-03T05:01:16.463Z,95.15
2023-01-03T05:02:16.493Z,95.05
2023-01-03T05:03:16.948Z,95.05
2023-01-03T05:04:16.415Z,95.05
2023-01-03T05:05:16.342Z,95.05
2023-01-03T05:06:16.331Z,95.05
2023-01-03T05:07:16.321Z,95.05
2023-01-03T05:08:16.300Z,95.05
2023-01-03T05:09:16.300Z,95.15
2023-01-03T05:10:16.293Z,95.25
2023-01-03T05:11:16.290Z,95.46
2023-01-03T05:12:16.261Z,95.36
2023-01-03T05:13:16.259Z,95.25
2023-01-03T05:14:16.240Z,95.25
2023-01-03T05:15:16.229Z,95.15
2023-01-03T05:16:16.340Z,95.05
2023-01-03T05:17:16.212Z,94.90
2023-01-03T05:18:16.195Z,94.59
2023-01-03T05:19:16.215Z,94.38
2023-01-03T05:20:16.211Z,94.28
2023-01-03T05:21:16.173Z,94.18
2023-01-03T05:22:16.166Z,94.08
2023-01-03T05:23:16.143Z,94.08
2023-01-03T05:24:16.171Z,94.18
2023-01-03T05:25:16.123Z,94.18
2023-01-03T05:26:16.156Z,94.18
2023-01-03T05:27:16.094Z,94.18
2023-01-03T05:28:17.792Z,94.08
2023-01-03T05:29:16.082Z,94.28
2023-01-03T05:30:16.066Z,94.38
2023-01-03T05:31:16.093Z,94.38
2023-01-03T05:32:16.109Z,94.70
2023-01-03T05:33:16.049Z,94.80
2023-01-03T05:34:16.199Z,94.84
2023-01-03T05:35:16.020Z,94.95
2023-01-03T05:36:16.787Z,94.95
2023-01-03T05:37:15.999Z,94.84
2023-01-03T05:38:15.984Z,94.74
2023-01-03T05:39:15.972Z,94.74
2023-01-03T05:40:15.968Z,94.84
2023-01-03T05:41:15.978Z,94.95
2023-01-03T05:42:15.965Z,94.95
2023-01-03T05:43:15.942Z,94.84
2023-01-03T05:44:15.918Z,95.05
2023-01-03T05:45:15.906Z,95.09
2023-01-03T05:46:15.996Z,94.99
2023-01-03T05:47:15.907Z,94.89
2023-01-03T05:48:15.875Z,94.99
2023-01-03T05:49:15.880Z,94.99
2023-01-03T05:50:15.869Z,95.20
2023-01-03T05:51:15.857Z,95.14
2023-01-03T05:52:15.846Z,95.14
2023-01-03T05:53:15.835Z,95.14
2023-01-03T05:54:15.805Z,95.34
2023-01-03T05:55:15.801Z,95.24
2023-01-03T05:56:15.821Z,95.14
2023-01-03T05:57:15.784Z,95.34
2023-01-03T05:58:15.774Z,95.34
2023-01-03T05:59:15.758Z,95.34
2023-01-03T06:00:15.748Z,95.45
2023-01-03T06:01:15.805Z,95.55
2023-01-03T06:02:15.847Z,95.49
2023-01-03T06:03:15.730Z,95.28
2023-01-03T06:04:15.769Z,95.18
2023-01-03T06:05:15.698Z,95.07
2023-01-03T06:06:15.770Z,94.92
2023-01-03T06:07:15.677Z,95.02
2023-01-03T06:08:15.658Z,94.92
2023-01-03T06:09:15.654Z,95.12
2023-01-03T06:10:15.629Z,95.22
2023-01-03T06:11:15.651Z,95.57
2023-01-03T06:12:15.660Z,95.78
2023-01-03T06:13:15.608Z,95.99
2023-01-03T06:14:15.588Z,96.41
2023-01-03T06:15:15.578Z,96.72
2023-01-03T06:16:17.896Z,96.82
2023-01-03T06:17:16.699Z,97.13
2023-01-03T06:18:15.559Z,97.44
2023-01-03T06:19:15.543Z,97.33
2023-01-03T06:20:15.574Z,97.54
2023-01-03T06:21:15.551Z,97.50
2023-01-03T06:22:15.509Z,97.29
2023-01-03T06:23:15.506Z,97.08
2023-01-03T06:24:15.529Z,96.77
2023-01-03T06:25:15.496Z,96.67
2023-01-03T06:26:15.481Z,96.67
2023-01-03T06:27:15.453Z,96.67
2023-01-03T06:28:15.446Z,96.51
2023-01-03T06:29:15.455Z,96.30
2023-01-03T06:30:15.420Z,96.09
2023-01-03T06:31:15.471Z,96.09
2023-01-03T06:32:15.397Z,96.14
2023-01-03T06:33:15.392Z,96.14
2023-01-03T06:34:15.384Z,96.45
2023-01-03T06:35:15.383Z,96.24
2023-01-03T06:36:15.366Z,96.34
2023-01-03T06:37:15.352Z,96.34
2023-01-03T06:38:15.359Z,96.34
2023-01-03T06:39:15.324Z,96.45
2023-01-03T06:40:15.329Z,96.45
2023-01-03T06:41:15.331Z,96.66
2023-01-03T06:42:15.321Z,96.76
2023-01-03T06:43:15.291Z,96.76
2023-01-03T06:44:15.273Z,96.66
2023-01-03T06:45:15.273Z,96.86
2023-01-03T06:46:15.377Z,96.86
2023-01-03T06:47:15.242Z,96.82
2023-01-03T06:48:15.222Z,96.72
2023-01-03T06:49:15.230Z,96.61
2023-01-03T06:50:15.230Z,96.72
2023-01-03T06:51:15.203Z,96.61
2023-01-03T06:52:15.183Z,96.51
2023-01-03T06:53:15.201Z,96.41
2023-01-03T06:54:15.162Z,96.41
2023-01-03T06:55:15.164Z,96.41
2023-01-03T06:56:15.174Z,96.30
2023-01-03T06:57:25.834Z,96.30
2023-01-03T06:58:16.134Z,96.30
2023-01-03T06:59:15.113Z,96.30
2023-01-03T07:00:15.123Z,96.20
2023-01-03T07:01:15.254Z,96.20
2023-01-03T07:02:15.272Z,96.20
2023-01-03T07:03:15.175Z,96.20
2023-01-03T07:04:15.224Z,96.09
2023-01-03T07:05:15.055Z,95.89
2023-01-03T07:06:15.104Z,95.78
2023-01-03T07:07:15.045Z,95.68
2023-01-03T07:08:15.005Z,95.68
2023-01-03T07:09:15.010Z,95.64
2023-01-03T07:10:15.006Z,95.32
2023-01-03T07:11:15.005Z,95.17
2023-01-03T07:12:14.987Z,95.22
2023-01-03T07:13:14.983Z,95.22
2023-01-03T07:14:14.960Z,94.92
2023-01-03T07:15:14.934Z,94.81
2023-01-03T07:16:15.200Z,94.71
2023-01-03T07:17:14.920Z,94.71
2023-01-03T07:18:14.960Z,94.71
2023-01-03T07:19:14.896Z,94.50
2023-01-03T07:20:14.926Z,94.50
2023-01-03T07:21:14.890Z,94.60
2023-01-03T07:22:14.926Z,94.60
2023-01-03T07:23:14.879Z,94.60
2023-01-03T07:24:14.882Z,94.50
2023-01-03T07:25:14.837Z,94.40
2023-01-03T07:26:14.907Z,94.50
2023-01-03T07:27:14.831Z,94.60
2023-01-03T07:28:14.798Z,94.50
2023-01-03T07:29:14.817Z,94.60
2023-01-03T07:30:14.828Z,94.71
2023-01-03T07:31:14.871Z,94.71
2023-01-03T07:32:14.756Z,94.85
2023-01-03T07:33:14.745Z,94.92
2023-01-03T07:34:14.798Z,94.85
2023-01-03T07:35:14.744Z,94.81
2023-01-03T07:36:14.773Z,94.85
2023-01-03T07:37:14.725Z,94.81
2023-01-03T07:38:14.711Z,94.71
2023-01-03T07:39:14.720Z,94.81
2023-01-03T07:40:14.689Z,94.81
2023-01-03T07:41:14.700Z,94.60
2023-01-03T07:42:14.697Z,94.60
2023-01-03T07:43:14.666Z,94.65
2023-01-03T07:44:14.679Z,94.75
2023-01-03T07:45:14.658Z,94.65
2023-01-03T07:46:14.688Z,94.75
2023-01-03T07:47:14.598Z,94.75
2023-01-03T07:48:14.618Z,94.75
2023-01-03T07:49:14.579Z,94.85
2023-01-03T07:50:14.566Z,94.85
2023-01-03T07:51:14.572Z,94.85
2023-01-03T07:52:14.539Z,94.75
2023-01-03T07:53:14.529Z,94.65
2023-01-03T07:54:14.531Z,94.60
2023-01-03T07:55:14.511Z,94.54
2023-01-03T07:56:14.516Z,94.44
2023-01-03T07:57:14.490Z,94.50
2023-01-03T07:58:14.495Z,94.40
2023-01-03T07:59:14.474Z,94.29
2023-01-03T08:00:14.459Z,94.09
2023-01-03T08:01:14.575Z,93.88
2023-01-03T08:02:14.591Z,93.88
2023-01-03T08:03:14.534Z,93.78
2023-01-03T08:04:14.517Z,93.88
2023-01-03T08:05:14.481Z,93.88
2023-01-03T08:06:14.457Z,93.98
2023-01-03T08:07:14.400Z,93.98
2023-01-03T08:08:14.370Z,93.88
2023-01-03T08:09:14.363Z,93.98
2023-01-03T08:10:14.350Z,93.98
2023-01-03T08:11:14.447Z,93.98
2023-01-03T08:12:14.351Z,93.98
2023-01-03T08:13:14.324Z,93.88
2023-01-03T08:14:14.322Z,93.73
2023-01-03T08:15:14.295Z,93.53
2023-01-03T08:16:14.346Z,93.68
2023-01-03T08:17:14.300Z,93.68
2023-01-03T08:18:14.275Z,93.68
2023-01-03T08:19:14.263Z,93.78
2023-01-03T08:20:14.247Z,93.78
2023-01-03T08:21:14.234Z,93.98
2023-01-03T08:22:14.246Z,93.98
2023-01-03T08:23:14.218Z,93.98
2023-01-03T08:24:14.225Z,94.15
2023-01-03T08:25:14.212Z,94.04
2023-01-03T08:26:14.178Z,94.15
2023-01-03T08:27:14.183Z,94.15
2023-01-03T08:28:14.153Z,94.46
2023-01-03T08:29:14.163Z,94.35
2023-01-03T08:30:14.153Z,94.10
2023-01-03T08:31:14.152Z,94.00
2023-01-03T08:32:14.123Z,93.90
2023-01-03T08:33:14.105Z,93.69
2023-01-03T08:34:19.572Z,93.38
2023-01-03T08:35:15.089Z,93.28
2023-01-03T08:36:14.085Z,93.18
2023-01-03T08:37:14.065Z,93.13
2023-01-03T08:38:14.065Z,93.03
2023-01-03T08:39:14.054Z,92.82
2023-01-03T08:40:14.105Z,92.82
2023-01-03T08:41:14.014Z,93.03
2023-01-03T08:42:14.024Z,93.13
2023-01-03T08:43:13.996Z,93.13
2023-01-03T08:44:13.996Z,92.93
2023-01-03T08:45:13.991Z,92.82
2023-01-03T08:46:14.015Z,92.82
2023-01-03T08:47:14.044Z,92.93
2023-01-03T08:48:13.949Z,92.82
2023-01-03T08:49:13.929Z,92.47
2023-01-03T08:50:13.954Z,92.37
2023-01-03T08:51:13.912Z,92.47
2023-01-03T08:52:13.938Z,92.06
2023-01-03T08:53:13.885Z,92.06
2023-01-03T08:54:13.967Z,92.37
2023-01-03T08:55:13.872Z,91.85
2023-01-03T08:56:13.876Z,91.75
2023-01-03T08:57:13.856Z,92.06
2023-01-03T08:58:13.987Z,92.57
2023-01-03T08:59:13.831Z,92.88
2023-01-03T09:00:13.810Z,93.30
2023-01-03T09:01:13.898Z,93.30
2023-01-03T09:02:13.965Z,93.19
2023-01-03T09:03:14.159Z,93.09
2023-01-03T09:04:14.005Z,92.99
2023-01-03T09:05:13.761Z,92.78
2023-01-03T09:06:13.751Z,92.88
2023-01-03T09:07:13.739Z,92.88
2023-01-03T09:08:13.731Z,92.99
2023-01-03T09:09:13.712Z,93.19
2023-01-03T09:10:13.732Z,93.60
2023-01-03T09:11:13.697Z,93.35
2023-01-03T09:12:13.688Z,93.35
2023-01-03T09:13:13.680Z,92.84
2023-01-03T09:14:13.660Z,92.84
2023-01-03T09:15:13.652Z,92.69
2023-01-03T09:16:13.707Z,92.18
2023-01-03T09:17:13.648Z,92.18
2023-01-03T09:18:13.631Z,92.03
2023-01-03T09:19:13.602Z,91.52
2023-01-03T09:20:13.640Z,90.66
2023-01-03T09:21:13.584Z,90.30
2023-01-03T09:22:13.650Z,90.41
2023-01-03T09:23:13.585Z,90.16
2023-01-03T09:24:13.624Z,89.54
2023-01-03T09:25:13.541Z,89.75
2023-01-03T09:26:13.683Z,88.92
2023-01-03T09:27:13.525Z,88.68
2023-01-03T09:28:13.513Z,88.78
2023-01-03T09:29:13.500Z,88.78
2023-01-03T09:30:13.523Z,88.27
2023-01-03T09:31:13.536Z,88.12
2023-01-03T09:32:13.539Z,87.61
2023-01-03T09:33:13.458Z,87.61
2023-01-03T09:34:13.455Z,87.61
2023-01-03T09:35:13.451Z,87.05
2023-01-03T09:36:13.423Z,86.95
2023-01-03T09:37:13.428Z,85.72
2023-01-03T09:38:13.403Z,85.47
2023-01-03T09:39:13.394Z,85.17
2023-01-03T09:40:13.383Z,85.17
2023-01-03T09:41:13.377Z,84.86
2023-01-03T09:42:13.369Z,85.27
2023-01-03T09:43:13.354Z,85.78
2023-01-03T09:44:13.445Z,85.17
2023-01-03T09:45:13.323Z,85.78
2023-01-03T09:46:13.341Z,85.47
2023-01-03T09:47:13.362Z,86.09
2023-01-03T09:48:13.284Z,85.47
2023-01-03T09:49:13.297Z,85.64
2023-01-03T09:50:39.247Z,84.41
2023-01-03T09:51:21.053Z,83.90
2023-01-03T09:52:14.288Z,84.00
2023-01-03T09:53:13.237Z,84.52
2023-01-03T09:54:13.441Z,84.47
2023-01-03T09:55:13.214Z,84.06
2023-01-03T09:56:13.268Z,84.27
2023-01-03T09:57:13.206Z,84.27
2023-01-03T09:58:13.177Z,83.25
2023-01-03T09:59:13.175Z,83.14
2023-01-03T10:00:13.147Z,82.93
2023-01-03T10:01:13.260Z,82.53
2023-01-03T10:02:13.369Z,82.12
2023-01-03T10:03:13.176Z,82.93
2023-01-03T10:04:13.146Z,82.90
2023-01-03T10:05:13.136Z,82.79
2023-01-03T10:06:13.112Z,83.31
2023-01-03T10:07:13.097Z,82.69
2023-01-03T10:08:13.089Z,82.45
2023-01-03T10:09:13.068Z,82.65
2023-01-03T10:10:14.543Z,82.65
2023-01-03T10:11:13.050Z,81.73
2023-01-03T10:12:13.067Z,81.63
2023-01-03T10:13:19.541Z,80.88
2023-01-03T10:14:14.152Z,81.49
2023-01-03T10:15:13.013Z,80.26
2023-01-03T10:16:13.023Z,80.88
2023-01-03T10:17:12.991Z,80.46
2023-01-03T10:18:12.960Z,80.36
2023-01-03T10:19:12.949Z,80.16
2023-01-03T10:20:12.976Z,80.67
2023-01-03T10:21:12.938Z,80.43
2023-01-03T10:22:12.932Z,80.63
2023-01-03T10:23:13.031Z,81.04
2023-01-03T10:24:12.956Z,79.71
2023-01-03T10:25:12.892Z,79.50
2023-01-03T10:26:12.907Z,79.16
2023-01-03T10:27:12.883Z,79.06
2023-01-03T10:28:12.885Z,79.88
2023-01-03T10:29:12.921Z,79.88
2023-01-03T10:30:12.856Z,80.08
2023-01-03T10:31:12.844Z,78.86
2023-01-03T10:32:12.973Z,78.75
2023-01-03T10:33:12.841Z,78.34
2023-01-03T10:34:12.814Z,79.02
2023-01-03T10:35:12.783Z,79.13
2023-01-03T10:36:12.823Z,78.00
2023-01-03T10:37:12.875Z,78.00
2023-01-03T10:38:12.794Z,78.52
2023-01-03T10:39:12.735Z,78.78
2023-01-03T10:40:12.740Z,77.86
2023-01-03T10:41:12.717Z,77.45
2023-01-03T10:42:12.706Z,76.06
2023-01-03T10:43:12.707Z,76.47
2023-01-03T10:44:12.716Z,77.15
2023-01-03T10:45:12.689Z,76.67
2023-01-03T10:46:12.742Z,76.88
2023-01-03T10:47:12.660Z,76.94
2023-01-03T10:48:12.636Z,77.15
2023-01-03T10:49:29.815Z,77.86
2023-01-03T10:50:13.628Z,76.53
2023-01-03T10:51:12.667Z,76.70
2023-01-03T10:52:12.601Z,77.01
2023-01-03T10:53:12.598Z,77.22
2023-01-03T10:54:12.586Z,76.29
2023-01-03T10:55:12.583Z,75.78
2023-01-03T10:56:12.591Z,76.81
2023-01-03T10:57:12.545Z,76.56
2023-01-03T10:58:12.618Z,75.48
2023-01-03T10:59:12.522Z,75.37
2023-01-03T11:00:12.582Z,75.17
2023-01-03T11:01:12.667Z,76.29
2023-01-03T11:02:12.699Z,74.87
2023-01-03T11:03:12.634Z,75.48
2023-01-03T11:04:12.465Z,74.56
2023-01-03T11:05:12.612Z,75.07
2023-01-03T11:06:12.444Z,75.89
2023-01-03T11:07:12.431Z,75.75
2023-01-03T11:08:12.493Z,74.66
2023-01-03T11:09:12.419Z,73.84
2023-01-03T11:10:12.415Z,74.97
2023-01-03T11:11:12.496Z,76.09
2023-01-03T11:12:12.397Z,73.50
2023-01-03T11:13:12.387Z,74.05
2023-01-03T11:14:12.362Z,74.87
2023-01-03T11:15:12.368Z,74.59
2023-01-03T11:16:12.432Z,74.52
2023-01-03T11:17:12.385Z,75.45
2023-01-03T11:18:12.480Z,76.06
2023-01-03T11:19:12.318Z,76.47
2023-01-03T11:20:12.443Z,75.65
2023-01-03T11:21:12.295Z,75.34
2023-01-03T11:22:12.273Z,76.26
2023-01-03T11:23:12.277Z,76.43
2023-01-03T11:24:12.273Z,75.21
2023-01-03T11:25:12.240Z,75.92
2023-01-03T11:26:12.292Z,77.01
2023-01-03T11:27:12.222Z,76.50
2023-01-03T11:28:16.259Z,74.97
2023-01-03T11:29:12.199Z,74.90
2023-01-03T11:30:12.255Z,75.71
2023-01-03T11:31:12.181Z,76.37
2023-01-03T11:32:12.226Z,76.47
2023-01-03T11:33:12.162Z,76.16
2023-01-03T11:34:12.178Z,75.85
2023-01-03T11:35:22.842Z,75.96
2023-01-03T11:36:13.143Z,76.98
2023-01-03T11:37:12.104Z,76.26
2023-01-03T11:38:12.108Z,76.16
2023-01-03T11:39:16.234Z,75.62
2023-01-03T11:40:13.106Z,75.51
2023-01-03T11:41:12.063Z,75.21
2023-01-03T11:42:12.065Z,75.85
2023-01-03T11:43:12.060Z,75.71
2023-01-03T11:44:12.057Z,75.21
2023-01-03T11:45:12.008Z,74.35
2023-01-03T11:46:12.086Z,74.05
2023-01-03T11:47:12.008Z,73.40
2023-01-03T11:48:11.999Z,73.10
2023-01-03T11:49:11.984Z,73.16
2023-01-03T11:50:11.980Z,73.06
2023-01-03T11:51:11.959Z,71.94
2023-01-03T11:52:12.038Z,71.84
2023-01-03T11:53:11.938Z,71.22
2023-01-03T11:54:11.925Z,71.94
2023-01-03T11:55:11.935Z,72.41
2023-01-03T11:56:11.932Z,72.11
2023-01-03T11:57:11.891Z,72.11
2023-01-03T11:58:11.940Z,71.19
2023-01-03T11:59:11.863Z,70.17
2023-01-03T12:00:11.851Z,70.98
2023-01-03T12:01:11.900Z,70.27
2023-01-03T12:02:11.966Z,70.98
2023-01-03T12:03:11.979Z,70.85
2023-01-03T12:04:11.952Z,69.86
2023-01-03T12:05:11.792Z,69.86
2023-01-03T12:06:11.796Z,69.83
2023-01-03T12:07:46.288Z,69.76
2023-01-03T12:08:12.934Z,70.24
2023-01-03T12:09:11.753Z,69.73
2023-01-03T12:10:11.767Z,69.93
2023-01-03T12:11:11.756Z,69.22
2023-01-03T12:12:11.787Z,69.42
2023-01-03T12:13:11.727Z,69.73
2023-01-03T12:14:11.726Z,70.44
2023-01-03T12:15:11.694Z,70.24
2023-01-03T12:16:11.770Z,70.82
2023-01-03T12:17:11.670Z,70.61
2023-01-03T12:18:11.678Z,70.72
2023-01-03T12:19:12.720Z,69.90
2023-01-03T12:20:11.691Z,70.72
2023-01-03T12:21:11.645Z,68.88
2023-01-03T12:22:11.622Z,68.57
2023-01-03T12:23:11.625Z,67.76
2023-01-03T12:24:11.622Z,68.78
2023-01-03T12:25:11.588Z,68.27
2023-01-03T12:26:11.622Z,68.27
2023-01-03T12:27:11.579Z,68.17
2023-01-03T12:28:11.595Z,68.48
2023-01-03T12:29:11.551Z,67.96
2023-01-03T12:30:11.671Z,68.48
2023-01-03T12:31:11.572Z,67.46
2023-01-03T12:32:11.531Z,67.15
2023-01-03T12:33:11.515Z,68.07
2023-01-03T12:34:11.527Z,68.88
2023-01-03T12:35:11.486Z,69.29
2023-01-03T12:36:11.469Z,69.15
2023-01-03T12:37:11.459Z,68.13
2023-01-03T12:38:11.826Z,67.52
2023-01-03T12:39:11.440Z,67.93
2023-01-03T12:40:11.473Z,68.34
2023-01-03T12:41:11.421Z,68.04
2023-01-03T12:42:11.409Z,67.93
2023-01-03T12:43:11.403Z,67.52
2023-01-03T12:44:11.428Z,67.12
2023-01-03T12:45:11.381Z,68.13
2023-01-03T12:46:13.095Z,69.15
2023-01-03T12:47:11.504Z,67.76
2023-01-03T12:48:11.494Z,68.88
2023-01-03T12:49:11.352Z,68.61
2023-01-03T12:50:11.370Z,68.64
2023-01-03T12:51:11.303Z,68.74
2023-01-03T12:52:16.727Z,69.46